createdAt,value
2023-03-17T00:01:54.468Z,44.30
2023-03-17T00:04:24.186Z,44.40
2023-03-17T00:06:53.331Z,44.40
2023-03-17T00:09:22.818Z,44.40
2023-03-17T00:11:51.065Z,44.50
2023-03-17T00:14:19.965Z,44.50
2023-03-17T00:16:52.627Z,44.60
2023-03-17T00:19:26.429Z,45.20
2023-03-17T00:21:55.014Z,44.60
2023-03-17T00:24:23.299Z,44.50
2023-03-17T00:26:51.334Z,44.60
2023-03-17T00:29:20.035Z,44.50
2023-03-17T00:31:48.137Z,44.50
2023-03-17T00:34:19.833Z,44.50
2023-03-17T00:36:49.678Z,44.50
2023-03-17T00:39:18.477Z,44.50
2023-03-17T00:44:14.404Z,44.60
2023-03-17T00:46:42.681Z,44.60
2023-03-17T00:51:46.014Z,44.60
2023-03-17T00:54:15.563Z,44.60
2023-03-17T00:56:45.242Z,44.60
2023-03-17T00:59:21.841Z,44.70
2023-03-17T01:01:50.140Z,44.70
2023-03-17T01:04:20.000Z,44.50
2023-03-17T01:06:49.131Z,44.50
2023-03-17T01:09:19.426Z,44.50
2023-03-17T01:11:48.666Z,44.50
2023-03-17T01:14:17.041Z,44.50
2023-03-17T01:16:45.702Z,44.50
2023-03-17T01:19:14.773Z,44.60
2023-03-17T01:21:44.389Z,44.60
2023-03-17T01:24:12.816Z,44.60
2023-03-17T01:26:41.555Z,44.50
2023-03-17T01:29:09.724Z,44.50
2023-03-17T01:31:37.825Z,44.50
2023-03-17T01:34:06.236Z,44.60
2023-03-17T01:36:34.434Z,44.60
2023-03-17T01:39:05.276Z,44.70
2023-03-17T01:41:34.803Z,44.70
2023-03-17T01:46:34.157Z,44.10
2023-03-17T01:49:09.841Z,44.50
2023-03-17T01:51:44.187Z,44.50
2023-03-17T01:54:17.264Z,44.50
2023-03-17T01:56:48.953Z,44.60
2023-03-17T01:59:20.604Z,44.60
2023-03-17T02:01:52.473Z,44.60
2023-03-17T02:04:21.933Z,45.20
2023-03-17T02:06:57.986Z,45.20
2023-03-17T02:12:00.781Z,44.30
2023-03-17T02:14:29.317Z,44.80
2023-03-17T02:16:57.517Z,44.80
2023-03-17T02:19:25.753Z,44.90
2023-03-17T02:21:56.840Z,44.80
2023-03-17T02:24:30.825Z,44.80
2023-03-17T02:27:03.836Z,44.90
2023-03-17T02:29:34.984Z,44.90
2023-03-17T02:32:03.533Z,44.90
2023-03-17T02:34:32.635Z,44.80
2023-03-17T02:37:02.136Z,44.80
2023-03-17T02:39:30.736Z,44.80
2023-03-17T02:41:58.827Z,44.80
2023-03-17T02:44:28.152Z,44.80
2023-03-17T02:46:56.645Z,44.70
2023-03-17T02:49:25.920Z,44.80
2023-03-17T02:51:54.268Z,44.80
2023-03-17T02:54:24.069Z,44.80
2023-03-17T02:56:52.302Z,44.80
2023-03-17T02:59:20.328Z,44.80
2023-03-17T03:01:50.643Z,44.80
2023-03-17T03:04:19.174Z,44.70
2023-03-17T03:06:47.766Z,44.70
2023-03-17T03:09:17.797Z,44.70
2023-03-17T03:11:47.830Z,44.70
2023-03-17T03:14:16.024Z,44.80
2023-03-17T03:16:44.682Z,44.80
2023-03-17T03:19:12.889Z,44.70
2023-03-17T03:21:41.112Z,44.80
2023-03-17T03:24:09.716Z,44.80
2023-03-17T03:26:38.330Z,44.80
2023-03-17T03:29:07.744Z,44.80
2023-03-17T03:31:35.984Z,44.80
2023-03-17T03:34:04.160Z,44.80
2023-03-17T03:36:32.362Z,44.90
2023-03-17T03:39:00.998Z,44.90
2023-03-17T03:41:29.028Z,44.90
2023-03-17T03:43:57.242Z,44.90
2023-03-17T03:46:27.755Z,44.90
2023-03-17T03:48:56.238Z,44.90
2023-03-17T03:51:24.324Z,44.90
2023-03-17T03:53:52.354Z,44.90
2023-03-17T03:56:20.815Z,45.00
2023-03-17T03:58:48.821Z,45.00
2023-03-17T04:01:16.883Z,45.00
2023-03-17T04:03:47.333Z,44.90
2023-03-17T04:06:16.242Z,44.90
2023-03-17T04:08:44.319Z,44.90
2023-03-17T04:11:12.374Z,44.50
2023-03-17T04:13:40.482Z,44.90
2023-03-17T04:16:09.007Z,44.90
2023-03-17T04:18:37.160Z,44.90
2023-03-17T04:21:08.349Z,44.90
2023-03-17T04:23:36.465Z,44.90
2023-03-17T04:26:05.153Z,45.00
2023-03-17T04:28:33.215Z,44.50
2023-03-17T04:31:01.546Z,45.00
2023-03-17T04:33:29.660Z,45.00
2023-03-17T04:35:58.539Z,45.10
2023-03-17T04:38:28.085Z,45.00
2023-03-17T04:40:56.154Z,45.00
2023-03-17T04:43:24.443Z,45.00
2023-03-17T04:45:53.403Z,45.00
2023-03-17T04:48:21.613Z,45.00
2023-03-17T04:50:49.936Z,45.00
2023-03-17T04:53:18.006Z,45.10
2023-03-17T04:55:47.460Z,45.10
2023-03-17T04:58:29.600Z,45.10
2023-03-17T05:00:59.052Z,45.20
2023-03-17T05:03:28.481Z,45.20
2023-03-17T05:08:26.142Z,44.80
2023-03-17T05:10:55.968Z,45.30
2023-03-17T05:13:24.372Z,45.30
2023-03-17T05:15:54.176Z,45.40
2023-03-17T05:18:25.108Z,45.40
2023-03-17T05:20:53.613Z,45.40
2023-03-17T05:23:22.378Z,45.30
2023-03-17T05:25:51.019Z,45.30
2023-03-17T05:28:20.819Z,45.30
2023-03-17T05:30:49.371Z,45.30
2023-03-17T05:33:17.496Z,45.40
2023-03-17T05:35:46.406Z,45.40
2023-03-17T05:38:16.445Z,45.40
2023-03-17T05:40:45.866Z,45.40
2023-03-17T05:43:13.999Z,45.50
2023-03-17T05:45:43.594Z,45.50
2023-03-17T05:48:12.357Z,45.50
2023-03-17T05:50:41.721Z,45.50
2023-03-17T05:53:10.653Z,45.60
2023-03-17T05:55:38.974Z,45.70
2023-03-17T05:58:07.792Z,45.70
2023-03-17T06:00:36.476Z,46.30
2023-03-17T06:03:06.599Z,45.80
2023-03-17T06:05:34.938Z,45.80
2023-03-17T06:08:03.079Z,45.70
2023-03-17T06:10:31.239Z,45.70
2023-03-17T06:13:01.175Z,45.70
2023-03-17T06:15:31.117Z,45.80
2023-03-17T06:17:59.687Z,45.80
2023-03-17T06:20:29.101Z,45.80
2023-03-17T06:23:04.522Z,45.70
2023-03-17T06:25:34.330Z,45.60
2023-03-17T06:28:03.811Z,45.60
2023-03-17T06:30:32.961Z,45.50
2023-03-17T06:33:02.058Z,45.50
2023-03-17T06:35:32.827Z,45.50
2023-03-17T06:38:01.125Z,45.40
2023-03-17T06:40:29.447Z,45.30
2023-03-17T06:42:57.639Z,45.30
2023-03-17T06:45:25.701Z,45.20
2023-03-17T06:47:53.796Z,45.20
2023-03-17T06:50:22.359Z,45.10
2023-03-17T06:52:52.020Z,45.10
2023-03-17T06:55:21.327Z,45.10
2023-03-17T06:57:51.239Z,45.10
2023-03-17T07:00:21.073Z,45.00
2023-03-17T07:02:49.668Z,45.00
2023-03-17T07:05:17.957Z,44.90
2023-03-17T07:07:46.205Z,44.90
2023-03-17T07:10:17.375Z,44.90
2023-03-17T07:12:45.587Z,44.90
2023-03-17T07:15:13.852Z,44.90
2023-03-17T07:17:42.174Z,44.90
2023-03-17T07:20:13.880Z,45.00
2023-03-17T07:22:42.402Z,45.00
2023-03-17T07:25:11.315Z,44.90
2023-03-17T07:27:40.880Z,45.00
2023-03-17T07:30:10.864Z,44.90
2023-03-17T07:32:39.410Z,44.90
2023-03-17T07:35:08.190Z,44.90
2023-03-17T07:37:36.400Z,45.00
2023-03-17T07:40:06.330Z,44.90
2023-03-17T07:42:34.357Z,45.00
2023-03-17T07:45:05.078Z,44.90
2023-03-17T07:47:33.188Z,44.70
2023-03-17T07:50:01.262Z,44.70
2023-03-17T07:52:29.337Z,44.80
2023-03-17T07:54:58.275Z,44.90
2023-03-17T07:57:27.139Z,44.00
2023-03-17T07:59:55.899Z,44.00
2023-03-17T08:02:25.518Z,43.90
2023-03-17T08:04:53.936Z,43.70
2023-03-17T08:07:22.028Z,43.70
2023-03-17T08:09:50.127Z,43.60
2023-03-17T08:12:18.171Z,43.50
2023-03-17T08:14:46.231Z,43.30
2023-03-17T08:17:14.295Z,43.10
2023-03-17T08:19:43.853Z,43.00
2023-03-17T08:24:42.966Z,42.30
2023-03-17T08:27:11.205Z,42.70
2023-03-17T08:29:39.657Z,42.50
2023-03-17T08:32:08.767Z,42.50
2023-03-17T08:34:36.872Z,42.50
2023-03-17T08:37:07.181Z,42.30
2023-03-17T08:39:36.281Z,42.20
2023-03-17T08:42:05.289Z,42.20
2023-03-17T08:44:33.646Z,42.10
2023-03-17T08:47:01.827Z,42.10
2023-03-17T08:49:31.097Z,42.10
2023-03-17T08:51:59.659Z,42.00
2023-03-17T08:54:29.083Z,41.80
2023-03-17T08:56:57.111Z,41.60
2023-03-17T08:59:25.177Z,41.40
2023-03-17T09:01:53.257Z,41.30
2023-03-17T09:04:23.393Z,41.20
2023-03-17T09:07:02.827Z,41.10
2023-03-17T09:09:34.042Z,41.10
2023-03-17T09:12:04.401Z,41.00
2023-03-17T09:14:42.601Z,40.90
2023-03-17T09:17:11.594Z,40.80
2023-03-17T09:19:40.434Z,40.80
2023-03-17T09:22:08.685Z,40.80
2023-03-17T09:24:38.138Z,40.70
2023-03-17T09:27:06.389Z,40.50
2023-03-17T09:29:34.756Z,40.40
2023-03-17T09:32:02.830Z,40.20
2023-03-17T09:34:31.389Z,40.10
2023-03-17T09:37:00.054Z,40.00
2023-03-17T09:39:28.248Z,39.80
2023-03-17T09:42:09.207Z,39.80
2023-03-17T09:44:59.935Z,39.80
2023-03-17T09:47:47.654Z,39.80
2023-03-17T09:50:20.210Z,39.80
2023-03-17T09:52:51.116Z,39.70
2023-03-17T09:55:26.262Z,39.50
2023-03-17T09:57:57.835Z,39.40
2023-03-17T10:00:29.344Z,39.30
2023-03-17T10:02:58.929Z,38.90
2023-03-17T10:05:29.113Z,38.50
2023-03-17T10:08:07.551Z,38.40
2023-03-17T10:10:46.475Z,38.30
2023-03-17T10:13:34.319Z,38.10
2023-03-17T10:16:06.120Z,37.80
2023-03-17T10:18:42.151Z,37.70
2023-03-17T10:21:12.703Z,37.50
2023-03-17T10:23:40.768Z,37.40
2023-03-17T10:26:22.374Z,37.40
2023-03-17T10:28:52.329Z,37.20
2023-03-17T10:31:22.970Z,37.00
2023-03-17T10:33:53.312Z,36.90
2023-03-17T10:36:35.597Z,36.80
2023-03-17T10:39:05.286Z,36.20
2023-03-17T10:41:36.033Z,36.20
2023-03-17T10:44:11.098Z,35.80
2023-03-17T10:49:11.226Z,34.40
2023-03-17T10:51:40.710Z,34.20
2023-03-17T10:54:10.990Z,33.80
2023-03-17T10:56:42.292Z,33.70
2023-03-17T10:59:19.912Z,33.60
2023-03-17T11:01:53.143Z,33.40
2023-03-17T11:04:33.560Z,33.40
2023-03-17T11:07:10.367Z,32.60
2023-03-17T11:09:39.181Z,32.50
2023-03-17T11:12:18.897Z,32.50
2023-03-17T11:17:21.637Z,31.60
2023-03-17T11:19:55.690Z,32.60
2023-03-17T11:22:30.475Z,31.80
2023-03-17T11:25:06.368Z,31.60
2023-03-17T11:30:17.843Z,30.60
2023-03-17T11:32:52.213Z,30.70
2023-03-17T11:35:32.967Z,30.80
2023-03-17T11:38:14.847Z,30.40
2023-03-17T11:40:58.083Z,30.00
2023-03-17T11:43:34.286Z,30.00
2023-03-17T11:46:08.964Z,29.70
2023-03-17T11:48:48.294Z,29.40
2023-03-17T11:51:27.499Z,29.10
2023-03-17T11:54:06.987Z,29.00
2023-03-17T11:56:41.981Z,28.80
2023-03-17T11:59:18.576Z,28.60
2023-03-17T12:01:55.951Z,28.40
2023-03-17T12:04:30.707Z,28.30
2023-03-17T12:07:08.628Z,28.00
2023-03-17T12:09:42.461Z,27.60
2023-03-17T12:12:16.157Z,27.40
2023-03-17T12:17:20.949Z,26.70
2023-03-17T12:20:00.610Z,26.50
2023-03-17T12:22:32.823Z,26.60
2023-03-17T12:25:11.156Z,26.40
2023-03-17T12:27:45.496Z,25.90
2023-03-17T12:30:22.679Z,25.70
2023-03-17T12:33:00.227Z,25.10
2023-03-17T12:35:31.523Z,25.40
2023-03-17T12:40:35.556Z,24.80
2023-03-17T12:46:14.250Z,24.00
2023-03-17T12:49:04.965Z,24.40
2023-03-17T12:51:54.795Z,24.30
2023-03-17T12:54:28.136Z,24.30
2023-03-17T12:57:03.454Z,24.20
2023-03-17T12:59:34.000Z,23.90
2023-03-17T13:02:16.596Z,23.90
2023-03-17T13:04:58.138Z,23.50
2023-03-17T13:07:31.665Z,23.50
2023-03-17T13:10:36.319Z,23.50
2023-03-17T13:13:13.979Z,23.20
2023-03-17T13:16:00.690Z,23.40
2023-03-17T13:18:48.202Z,23.20
2023-03-17T13:21:20.524Z,23.10
2023-03-17T13:23:56.463Z,23.30
2023-03-17T13:26:54.930Z,23.40
2023-03-17T13:29:45.536Z,23.30
2023-03-17T13:32:34.802Z,23.60
2023-03-17T13:35:20.097Z,23.60
2023-03-17T13:38:16.455Z,23.70
2023-03-17T13:40:53.981Z,24.00
2023-03-17T13:43:41.801Z,24.10
2023-03-17T13:46:28.005Z,24.00
2023-03-17T13:48:56.884Z,24.10
2023-03-17T13:51:27.349Z,24.50
2023-03-17T13:53:59.222Z,24.70
2023-03-17T13:56:46.812Z,24.90
2023-03-17T13:59:17.190Z,25.00
2023-03-17T14:01:53.886Z,24.90
2023-03-17T14:04:25.504Z,24.70
2023-03-17T14:06:57.757Z,24.90
2023-03-17T14:09:35.338Z,25.00
2023-03-17T14:12:07.770Z,25.00
2023-03-17T14:14:43.980Z,25.10
2023-03-17T14:17:16.450Z,25.30
2023-03-17T14:22:27.918Z,24.90
2023-03-17T14:25:03.812Z,25.40
2023-03-17T14:27:35.420Z,25.40
2023-03-17T14:30:17.032Z,25.40
2023-03-17T14:32:49.109Z,25.50
2023-03-17T14:35:17.582Z,25.50
2023-03-17T14:37:46.538Z,25.40
2023-03-17T14:40:25.521Z,25.50
2023-03-17T14:42:53.609Z,25.60
2023-03-17T14:45:30.249Z,25.60
2023-03-17T14:47:58.869Z,26.00
2023-03-17T14:50:30.929Z,25.90
2023-03-17T14:52:59.720Z,26.00
2023-03-17T14:55:38.411Z,26.20
2023-03-17T14:58:11.006Z,26.20
2023-03-17T15:00:45.629Z,26.10
2023-03-17T15:03:23.113Z,26.10
2023-03-17T15:05:52.708Z,26.10
2023-03-17T15:08:39.359Z,26.10
2023-03-17T15:11:17.278Z,25.70
2023-03-17T15:13:45.416Z,26.10
2023-03-17T15:16:23.975Z,26.20
2023-03-17T15:18:58.391Z,26.20
2023-03-17T15:21:33.680Z,26.30
2023-03-17T15:24:22.907Z,26.30
2023-03-17T15:26:59.103Z,26.50
2023-03-17T15:29:27.160Z,26.60
2023-03-17T15:31:57.387Z,26.70
2023-03-17T15:34:25.419Z,26.80
2023-03-17T15:36:53.470Z,26.80
2023-03-17T15:39:21.474Z,26.80
2023-03-17T15:41:49.573Z,26.70
2023-03-17T15:44:18.964Z,26.80
2023-03-17T15:46:47.440Z,26.90
2023-03-17T15:51:43.944Z,26.80
2023-03-17T15:54:16.252Z,27.30
2023-03-17T16:04:11.388Z,27.10
2023-03-17T16:06:39.566Z,27.70
2023-03-17T16:09:14.530Z,27.80
2023-03-17T16:14:11.945Z,27.70
2023-03-17T16:16:45.748Z,28.20
2023-03-17T16:19:20.080Z,28.30
2023-03-17T16:21:49.008Z,28.50
2023-03-17T16:24:20.304Z,28.60
2023-03-17T16:26:49.260Z,28.70
2023-03-17T16:29:18.379Z,28.70
2023-03-17T16:31:49.310Z,28.80
2023-03-17T16:34:19.165Z,28.90
2023-03-17T16:36:48.324Z,29.00
2023-03-17T16:39:18.647Z,29.10
2023-03-17T16:41:47.842Z,29.10
2023-03-17T16:44:17.696Z,29.10
2023-03-17T16:46:47.636Z,29.20
2023-03-17T16:49:17.372Z,29.90
2023-03-17T16:51:45.508Z,29.40
2023-03-17T16:54:14.046Z,29.40
2023-03-17T16:56:43.125Z,29.50
2023-03-17T16:59:16.072Z,29.60
2023-03-17T17:01:47.569Z,29.30
2023-03-17T17:04:15.719Z,29.70
2023-03-17T17:06:43.754Z,29.80
2023-03-17T17:09:11.824Z,29.90
2023-03-17T17:11:39.964Z,29.90
2023-03-17T17:14:08.055Z,30.00
2023-03-17T17:16:39.821Z,30.00
2023-03-17T17:19:16.668Z,30.10
2023-03-17T17:21:46.071Z,30.20
2023-03-17T17:24:14.773Z,30.30
2023-03-17T17:26:42.870Z,30.40
2023-03-17T17:29:10.941Z,30.60
2023-03-17T17:31:39.107Z,30.70
2023-03-17T17:34:07.206Z,31.10
2023-03-17T17:39:05.161Z,30.80
2023-03-17T17:41:34.379Z,31.30
2023-03-17T17:44:02.566Z,31.60
2023-03-17T17:46:30.779Z,31.80
2023-03-17T17:48:59.041Z,32.60
2023-03-17T17:51:28.738Z,32.30
2023-03-17T17:53:58.149Z,32.50
2023-03-17T17:56:26.505Z,32.80
2023-03-17T17:58:54.836Z,33.00
2023-03-17T18:01:22.965Z,33.10
2023-03-17T18:03:51.045Z,33.30
2023-03-17T18:06:19.091Z,33.50
2023-03-17T18:08:47.249Z,33.60
2023-03-17T18:11:16.686Z,33.70
2023-03-17T18:13:44.709Z,33.90
2023-03-17T18:16:16.801Z,34.10
2023-03-17T18:18:45.997Z,34.20
2023-03-17T18:21:14.684Z,34.30
2023-03-17T18:23:47.119Z,34.40
2023-03-17T18:26:18.294Z,34.60
2023-03-17T18:28:47.811Z,34.70
2023-03-17T18:31:20.702Z,34.70
2023-03-17T18:33:51.809Z,34.90
2023-03-17T18:36:20.727Z,35.00
2023-03-17T18:38:48.845Z,35.10
2023-03-17T18:41:18.679Z,35.10
2023-03-17T18:43:46.712Z,35.30
2023-03-17T18:46:15.143Z,35.40
2023-03-17T18:48:43.194Z,35.40
2023-03-17T18:51:11.278Z,35.50
2023-03-17T18:53:39.334Z,35.70
2023-03-17T18:56:08.037Z,35.70
2023-03-17T18:58:37.488Z,35.80
2023-03-17T19:01:06.267Z,35.90
2023-03-17T19:03:34.895Z,36.00
2023-03-17T19:06:10.452Z,36.10
2023-03-17T19:08:38.548Z,36.20
2023-03-17T19:11:07.765Z,36.30
2023-03-17T19:13:38.892Z,36.40
2023-03-17T19:16:08.796Z,36.60
2023-03-17T19:18:41.411Z,36.50
2023-03-17T19:21:10.613Z,36.70
2023-03-17T19:23:39.131Z,36.80
2023-03-17T19:26:07.561Z,36.80
2023-03-17T19:28:37.301Z,37.00
2023-03-17T19:31:05.590Z,37.10
2023-03-17T19:33:33.681Z,37.30
2023-03-17T19:36:06.486Z,37.20
2023-03-17T19:38:34.582Z,37.50
2023-03-17T19:41:02.606Z,37.50
2023-03-17T19:43:40.311Z,37.60
2023-03-17T19:46:12.112Z,37.60
2023-03-17T19:48:40.716Z,37.80
2023-03-17T19:51:09.305Z,37.80
2023-03-17T19:53:38.374Z,37.90
2023-03-17T19:56:07.325Z,38.10
2023-03-17T19:58:35.419Z,38.20
2023-03-17T20:01:04.253Z,38.70
2023-03-17T20:03:35.193Z,38.60
2023-03-17T20:06:06.263Z,39.30
2023-03-17T20:08:35.657Z,39.30
2023-03-17T20:11:05.557Z,40.20
2023-03-17T20:13:34.625Z,39.90
2023-03-17T20:16:03.786Z,40.70
2023-03-17T20:18:33.692Z,41.80
2023-03-17T20:21:05.608Z,42.20
2023-03-17T20:23:35.459Z,44.90
2023-03-17T20:26:03.619Z,47.60
2023-03-17T20:28:31.794Z,49.40
2023-03-17T20:31:02.734Z,48.50
2023-03-17T20:33:31.535Z,49.20
2023-03-17T20:36:01.839Z,50.50
2023-03-17T20:38:31.318Z,51.00
2023-03-17T20:41:07.418Z,52.50
2023-03-17T20:43:37.337Z,52.00
2023-03-17T20:46:08.691Z,53.10
2023-03-17T20:48:37.257Z,54.00
2023-03-17T20:51:07.047Z,55.00
2023-03-17T20:53:36.230Z,53.60
2023-03-17T20:56:04.752Z,53.50
2023-03-17T20:58:32.857Z,51.70
2023-03-17T21:01:01.878Z,51.10
2023-03-17T21:03:29.944Z,51.80
2023-03-17T21:05:57.981Z,52.70
2023-03-17T21:08:27.725Z,52.20
2023-03-17T21:10:55.754Z,52.10
2023-03-17T21:13:23.817Z,50.50
2023-03-17T21:15:51.895Z,49.80
2023-03-17T21:18:19.943Z,50.00
2023-03-17T21:20:48.290Z,50.00
2023-03-17T21:23:16.594Z,50.00
2023-03-17T21:25:46.415Z,48.90
2023-03-17T21:28:15.057Z,49.20
2023-03-17T21:30:44.358Z,49.00
2023-03-17T21:33:12.470Z,49.70
2023-03-17T21:35:41.159Z,50.20
2023-03-17T21:38:09.370Z,50.50
2023-03-17T21:40:37.518Z,51.20
2023-03-17T21:43:07.011Z,51.80
2023-03-17T21:45:35.575Z,52.30
2023-03-17T21:48:03.726Z,52.80
2023-03-17T21:50:32.476Z,53.30
2023-03-17T21:53:01.421Z,54.20
2023-03-17T21:55:29.506Z,52.80
2023-03-17T21:57:57.635Z,53.50
2023-03-17T22:00:33.387Z,55.60
2023-03-17T22:03:04.245Z,57.00
2023-03-17T22:05:32.338Z,57.70
2023-03-17T22:08:00.513Z,57.40
2023-03-17T22:12:57.150Z,42.30
2023-03-17T22:15:26.706Z,42.80
2023-03-17T22:17:54.788Z,42.90
2023-03-17T22:20:23.322Z,42.90
2023-03-17T22:22:51.408Z,43.00
2023-03-17T22:25:20.664Z,43.10
2023-03-17T22:27:50.400Z,43.10
2023-03-17T22:30:18.975Z,43.10
2023-03-17T22:32:48.948Z,43.10
2023-03-17T22:35:19.234Z,43.20
2023-03-17T22:37:47.419Z,43.20
2023-03-17T22:40:15.866Z,43.30
2023-03-17T22:42:43.917Z,43.30
2023-03-17T22:45:13.210Z,43.40
2023-03-17T22:47:41.466Z,43.50
2023-03-17T22:50:12.576Z,43.50
2023-03-17T22:52:40.625Z,44.20
2023-03-17T22:55:09.493Z,43.60
2023-03-17T22:57:38.089Z,43.60
2023-03-17T23:00:14.262Z,43.60
2023-03-17T23:02:42.293Z,43.70
2023-03-17T23:05:13.357Z,43.70
2023-03-17T23:07:50.413Z,43.80
2023-03-17T23:10:22.134Z,43.80
2023-03-17T23:12:50.777Z,43.80
2023-03-17T23:15:19.731Z,43.80
2023-03-17T23:17:48.202Z,43.90
2023-03-17T23:20:17.867Z,44.00
2023-03-17T23:22:46.074Z,44.10
2023-03-17T23:25:14.387Z,44.10
2023-03-17T23:27:42.615Z,44.10
2023-03-17T23:30:12.885Z,44.80
2023-03-17T23:32:41.697Z,44.30
2023-03-17T23:35:10.645Z,44.40
2023-03-17T23:37:40.993Z,44.30
2023-03-17T23:40:10.869Z,44.40
2023-03-17T23:42:38.877Z,44.50
2023-03-17T23:45:08.584Z,44.50
2023-03-17T23:47:36.644Z,44.50
2023-03-17T23:50:05.785Z,44.60
2023-03-17T23:52:33.903Z,44.70
2023-03-17T23:55:03.321Z,44.70
2023-03-17T23:57:31.594Z,44.80
